sensor_id;sensor_type;location;lat;lon;timestamp;temperature;humidity
4279;DHT22;2153;47.744;10.580;2023-04-24T00:00:06;7.60;99.90
4279;DHT22;2153;47.744;10.580;2023-04-24T00:02:36;7.70;99.90
4279;DHT22;2153;47.744;10.580;2023-04-24T00:05:04;7.60;99.90
4279;DHT22;2153;47.744;10.580;2023-04-24T00:07:31;7.60;99.90
4279;DHT22;2153;47.744;10.580;2023-04-24T00:09:58;7.60;99.90
4279;DHT22;2153;47.744;10.580;2023-04-24T00:12:25;7.60;99.90
4279;DHT22;2153;47.744;10.580;2023-04-24T00:14:52;7.60;99.90
4279;DHT22;2153;47.744;10.580;2023-04-24T00:17:19;7.60;99.90
4279;DHT22;2153;47.744;10.580;2023-04-24T00:19:48;7.60;99.90
4279;DHT22;2153;47.744;10.580;2023-04-24T00:22:16;7.50;99.90
4279;DHT22;2153;47.744;10.580;2023-04-24T00:24:43;7.50;99.90
4279;DHT22;2153;47.744;10.580;2023-04-24T00:27:10;7.50;99.90
4279;DHT22;2153;47.744;10.580;2023-04-24T00:29:36;7.50;99.90
4279;DHT22;2153;47.744;10.580;2023-04-24T00:32:03;7.50;99.90
4279;DHT22;2153;47.744;10.580;2023-04-24T00:34:30;7.40;99.90
4279;DHT22;2153;47.744;10.580;2023-04-24T00:36:59;7.40;99.90
4279;DHT22;2153;47.744;10.580;2023-04-24T00:39:26;7.40;99.90
4279;DHT22;2153;47.744;10.580;2023-04-24T00:41:53;7.40;99.90
4279;DHT22;2153;47.744;10.580;2023-04-24T00:44:20;7.40;99.90
4279;DHT22;2153;47.744;10.580;2023-04-24T00:46:47;7.40;99.90
4279;DHT22;2153;47.744;10.580;2023-04-24T00:49:18;7.30;99.90
4279;DHT22;2153;47.744;10.580;2023-04-24T00:51:44;7.30;99.90
4279;DHT22;2153;47.744;10.580;2023-04-24T00:54:13;7.30;99.90
4279;DHT22;2153;47.744;10.580;2023-04-24T00:56:41;7.30;99.90
4279;DHT22;2153;47.744;10.580;2023-04-24T00:59:09;7.30;99.90
4279;DHT22;2153;47.744;10.580;2023-04-24T01:01:36;7.30;99.90
4279;DHT22;2153;47.744;10.580;2023-04-24T01:04:02;7.40;99.90
4279;DHT22;2153;47.744;10.580;2023-04-24T01:06:30;7.40;99.90
4279;DHT22;2153;47.744;10.580;2023-04-24T01:08:58;7.40;99.90
4279;DHT22;2153;47.744;10.580;2023-04-24T01:11:27;7.40;99.90
4279;DHT22;2153;47.744;10.580;2023-04-24T01:13:54;7.40;99.90
4279;DHT22;2153;47.744;10.580;2023-04-24T01:16:20;7.40;99.90
4279;DHT22;2153;47.744;10.580;2023-04-24T01:18:47;7.40;99.90
4279;DHT22;2153;47.744;10.580;2023-04-24T01:21:15;7.30;99.90
4279;DHT22;2153;47.744;10.580;2023-04-24T01:23:44;7.30;99.90
4279;DHT22;2153;47.744;10.580;2023-04-24T01:26:11;7.30;99.90
4279;DHT22;2153;47.744;10.580;2023-04-24T01:28:38;7.40;99.90
4279;DHT22;2153;47.744;10.580;2023-04-24T01:31:05;7.40;99.90
4279;DHT22;2153;47.744;10.580;2023-04-24T01:33:33;7.40;99.90
4279;DHT22;2153;47.744;10.580;2023-04-24T01:36:00;7.30;99.90
4279;DHT22;2153;47.744;10.580;2023-04-24T01:38:27;7.40;99.90
4279;DHT22;2153;47.744;10.580;2023-04-24T01:40:55;7.40;99.90
4279;DHT22;2153;47.744;10.580;2023-04-24T01:43:22;7.40;99.90
4279;DHT22;2153;47.744;10.580;2023-04-24T01:45:50;7.40;99.90
4279;DHT22;2153;47.744;10.580;2023-04-24T01:48:16;7.40;99.90
4279;DHT22;2153;47.744;10.580;2023-04-24T01:50:43;7.40;99.90
4279;DHT22;2153;47.744;10.580;2023-04-24T01:53:10;7.40;99.90
4279;DHT22;2153;47.744;10.580;2023-04-24T01:55:37;7.40;99.90
4279;DHT22;2153;47.744;10.580;2023-04-24T01:58:05;7.40;99.90
4279;DHT22;2153;47.744;10.580;2023-04-24T02:00:32;7.40;99.90
4279;DHT22;2153;47.744;10.580;2023-04-24T02:02:59;7.30;99.90
4279;DHT22;2153;47.744;10.580;2023-04-24T02:05:27;7.30;99.90
4279;DHT22;2153;47.744;10.580;2023-04-24T02:07:54;7.30;99.90
4279;DHT22;2153;47.744;10.580;2023-04-24T02:10:21;7.30;99.90
4279;DHT22;2153;47.744;10.580;2023-04-24T02:12:47;7.30;99.90
4279;DHT22;2153;47.744;10.580;2023-04-24T02:15:15;7.30;99.90
4279;DHT22;2153;47.744;10.580;2023-04-24T02:17:43;7.30;99.90
4279;DHT22;2153;47.744;10.580;2023-04-24T02:20:10;7.30;99.90
4279;DHT22;2153;47.744;10.580;2023-04-24T02:22:37;7.30;99.90
4279;DHT22;2153;47.744;10.580;2023-04-24T02:25:04;7.30;99.90
4279;DHT22;2153;47.744;10.580;2023-04-24T02:27:31;7.40;99.90
4279;DHT22;2153;47.744;10.580;2023-04-24T02:29:58;7.40;99.90
4279;DHT22;2153;47.744;10.580;2023-04-24T02:32:26;7.40;99.90
4279;DHT22;2153;47.744;10.580;2023-04-24T02:34:52;7.30;99.90
4279;DHT22;2153;47.744;10.580;2023-04-24T02:37:19;7.30;99.90
4279;DHT22;2153;47.744;10.580;2023-04-24T02:39:46;7.30;99.90
4279;DHT22;2153;47.744;10.580;2023-04-24T02:42:13;7.40;99.90
4279;DHT22;2153;47.744;10.580;2023-04-24T02:44:39;7.30;99.90
4279;DHT22;2153;47.744;10.580;2023-04-24T02:47:06;7.30;99.90
4279;DHT22;2153;47.744;10.580;2023-04-24T02:49:35;7.30;99.90
4279;DHT22;2153;47.744;10.580;2023-04-24T02:52:02;7.30;99.90
4279;DHT22;2153;47.744;10.580;2023-04-24T02:54:28;7.30;99.90
4279;DHT22;2153;47.744;10.580;2023-04-24T02:56:55;7.30;99.90
4279;DHT22;2153;47.744;10.580;2023-04-24T02:59:22;7.30;99.90
4279;DHT22;2153;47.744;10.580;2023-04-24T03:01:48;7.30;99.90
4279;DHT22;2153;47.744;10.580;2023-04-24T03:04:15;7.30;99.90
4279;DHT22;2153;47.744;10.580;2023-04-24T03:06:46;7.30;99.90
4279;DHT22;2153;47.744;10.580;2023-04-24T03:09:13;7.30;99.90
4279;DHT22;2153;47.744;10.580;2023-04-24T03:11:40;7.40;99.90
4279;DHT22;2153;47.744;10.580;2023-04-24T03:14:07;7.30;99.90
4279;DHT22;2153;47.744;10.580;2023-04-24T03:16:33;7.30;99.90
4279;DHT22;2153;47.744;10.580;2023-04-24T03:19:00;7.20;99.90
4279;DHT22;2153;47.744;10.580;2023-04-24T03:21:27;7.20;99.90
4279;DHT22;2153;47.744;10.580;2023-04-24T03:23:56;7.20;99.90
4279;DHT22;2153;47.744;10.580;2023-04-24T03:26:22;7.20;99.90
4279;DHT22;2153;47.744;10.580;2023-04-24T03:28:49;7.20;99.90
4279;DHT22;2153;47.744;10.580;2023-04-24T03:31:16;7.20;99.90
4279;DHT22;2153;47.744;10.580;2023-04-24T03:33:44;7.20;99.90
4279;DHT22;2153;47.744;10.580;2023-04-24T03:36:11;7.20;99.90
4279;DHT22;2153;47.744;10.580;2023-04-24T03:38:37;7.10;99.90
4279;DHT22;2153;47.744;10.580;2023-04-24T03:41:05;7.10;99.90
4279;DHT22;2153;47.744;10.580;2023-04-24T03:43:32;7.10;99.90
4279;DHT22;2153;47.744;10.580;2023-04-24T03:46:00;7.10;99.90
4279;DHT22;2153;47.744;10.580;2023-04-24T03:48:26;7.10;99.90
4279;DHT22;2153;47.744;10.580;2023-04-24T03:50:53;7.10;99.90
4279;DHT22;2153;47.744;10.580;2023-04-24T03:53:20;7.10;99.90
4279;DHT22;2153;47.744;10.580;2023-04-24T03:55:47;7.10;99.90
4279;DHT22;2153;47.744;10.580;2023-04-24T03:58:15;7.10;99.90
4279;DHT22;2153;47.744;10.580;2023-04-24T04:00:43;7.10;99.90
4279;DHT22;2153;47.744;10.580;2023-04-24T04:03:11;7.00;99.90
4279;DHT22;2153;47.744;10.580;2023-04-24T04:05:39;7.10;99.90
4279;DHT22;2153;47.744;10.580;2023-04-24T04:08:05;7.00;99.90
4279;DHT22;2153;47.744;10.580;2023-04-24T04:10:32;7.10;99.90
4279;DHT22;2153;47.744;10.580;2023-04-24T04:12:59;7.00;99.90
4279;DHT22;2153;47.744;10.580;2023-04-24T04:15:27;7.00;99.90
4279;DHT22;2153;47.744;10.580;2023-04-24T04:17:54;7.00;99.90
4279;DHT22;2153;47.744;10.580;2023-04-24T04:20:21;7.00;99.90
4279;DHT22;2153;47.744;10.580;2023-04-24T04:22:47;7.00;99.90
4279;DHT22;2153;47.744;10.580;2023-04-24T04:25:14;7.00;99.90
4279;DHT22;2153;47.744;10.580;2023-04-24T04:27:41;7.00;99.90
4279;DHT22;2153;47.744;10.580;2023-04-24T04:30:08;7.00;99.90
4279;DHT22;2153;47.744;10.580;2023-04-24T04:32:36;7.00;99.90
4279;DHT22;2153;47.744;10.580;2023-04-24T04:35:04;7.00;99.90
4279;DHT22;2153;47.744;10.580;2023-04-24T04:37:31;7.00;99.90
4279;DHT22;2153;47.744;10.580;2023-04-24T04:39:58;7.00;99.90
4279;DHT22;2153;47.744;10.580;2023-04-24T04:42:25;6.90;99.90
4279;DHT22;2153;47.744;10.580;2023-04-24T04:44:52;6.90;99.90
4279;DHT22;2153;47.744;10.580;2023-04-24T04:47:21;6.90;99.90
4279;DHT22;2153;47.744;10.580;2023-04-24T04:49:49;6.90;99.90
4279;DHT22;2153;47.744;10.580;2023-04-24T04:52:17;6.90;99.90
4279;DHT22;2153;47.744;10.580;2023-04-24T04:54:44;6.90;99.90
4279;DHT22;2153;47.744;10.580;2023-04-24T04:57:11;6.90;99.90
4279;DHT22;2153;47.744;10.580;2023-04-24T04:59:38;6.90;99.90
4279;DHT22;2153;47.744;10.580;2023-04-24T05:02:06;6.90;99.90
4279;DHT22;2153;47.744;10.580;2023-04-24T05:04:33;6.90;99.90
4279;DHT22;2153;47.744;10.580;2023-04-24T05:07:01;6.90;99.90
4279;DHT22;2153;47.744;10.580;2023-04-24T05:09:28;6.90;99.90
4279;DHT22;2153;47.744;10.580;2023-04-24T05:11:55;6.90;99.90
4279;DHT22;2153;47.744;10.580;2023-04-24T05:14:22;6.90;99.90
4279;DHT22;2153;47.744;10.580;2023-04-24T05:16:48;7.00;99.90
4279;DHT22;2153;47.744;10.580;2023-04-24T05:19:15;6.90;99.90
4279;DHT22;2153;47.744;10.580;2023-04-24T05:21:42;6.90;99.90
4279;DHT22;2153;47.744;10.580;2023-04-24T05:24:10;6.90;99.90
4279;DHT22;2153;47.744;10.580;2023-04-24T05:26:37;7.00;99.90
4279;DHT22;2153;47.744;10.580;2023-04-24T05:29:03;7.00;99.90
4279;DHT22;2153;47.744;10.580;2023-04-24T05:31:30;7.00;99.90
4279;DHT22;2153;47.744;10.580;2023-04-24T05:33:57;7.00;99.90
4279;DHT22;2153;47.744;10.580;2023-04-24T05:36:24;7.10;99.90
4279;DHT22;2153;47.744;10.580;2023-04-24T05:38:50;7.10;99.90
4279;DHT22;2153;47.744;10.580;2023-04-24T05:41:18;7.10;99.90
4279;DHT22;2153;47.744;10.580;2023-04-24T05:43:46;7.10;99.90
4279;DHT22;2153;47.744;10.580;2023-04-24T05:46:13;7.10;99.90
4279;DHT22;2153;47.744;10.580;2023-04-24T05:48:40;7.10;99.90
4279;DHT22;2153;47.744;10.580;2023-04-24T05:51:06;7.20;99.90
4279;DHT22;2153;47.744;10.580;2023-04-24T05:53:33;7.20;99.90
4279;DHT22;2153;47.744;10.580;2023-04-24T05:56:00;7.20;99.90
4279;DHT22;2153;47.744;10.580;2023-04-24T05:58:28;7.20;99.90
4279;DHT22;2153;47.744;10.580;2023-04-24T06:00:55;7.30;99.90
4279;DHT22;2153;47.744;10.580;2023-04-24T06:03:23;7.30;99.90
4279;DHT22;2153;47.744;10.580;2023-04-24T06:05:50;7.30;99.90
4279;DHT22;2153;47.744;10.580;2023-04-24T06:08:16;7.40;99.90
4279;DHT22;2153;47.744;10.580;2023-04-24T06:10:43;7.40;99.90
4279;DHT22;2153;47.744;10.580;2023-04-24T06:13:10;7.40;99.90
4279;DHT22;2153;47.744;10.580;2023-04-24T06:15:39;7.50;99.90
4279;DHT22;2153;47.744;10.580;2023-04-24T06:18:06;7.50;99.90
4279;DHT22;2153;47.744;10.580;2023-04-24T06:20:33;7.60;99.90
4279;DHT22;2153;47.744;10.580;2023-04-24T06:22:59;7.60;99.90
4279;DHT22;2153;47.744;10.580;2023-04-24T06:25:26;7.70;99.90
4279;DHT22;2153;47.744;10.580;2023-04-24T06:27:53;7.80;99.90
4279;DHT22;2153;47.744;10.580;2023-04-24T06:30:21;7.80;99.90
4279;DHT22;2153;47.744;10.580;2023-04-24T06:32:50;7.80;99.90
4279;DHT22;2153;47.744;10.580;2023-04-24T06:35:17;7.90;99.90
4279;DHT22;2153;47.744;10.580;2023-04-24T06:37:43;7.90;99.90
4279;DHT22;2153;47.744;10.580;2023-04-24T06:40:10;8.00;99.90
4279;DHT22;2153;47.744;10.580;2023-04-24T06:42:38;8.10;99.90
4279;DHT22;2153;47.744;10.580;2023-04-24T06:45:05;8.30;99.90
4279;DHT22;2153;47.744;10.580;2023-04-24T06:47:32;8.40;99.90
4279;DHT22;2153;47.744;10.580;2023-04-24T06:50:00;8.50;99.90
4279;DHT22;2153;47.744;10.580;2023-04-24T06:52:26;8.60;99.90
4279;DHT22;2153;47.744;10.580;2023-04-24T06:55:00;8.70;99.90
4279;DHT22;2153;47.744;10.580;2023-04-24T06:57:26;8.80;99.90
4279;DHT22;2153;47.744;10.580;2023-04-24T06:59:53;8.80;99.90
4279;DHT22;2153;47.744;10.580;2023-04-24T07:02:20;8.90;99.90
4279;DHT22;2153;47.744;10.580;2023-04-24T07:04:46;8.90;99.90
4279;DHT22;2153;47.744;10.580;2023-04-24T07:07:15;8.90;99.90
4279;DHT22;2153;47.744;10.580;2023-04-24T07:09:42;8.90;99.90
4279;DHT22;2153;47.744;10.580;2023-04-24T07:12:10;8.80;99.90
4279;DHT22;2153;47.744;10.580;2023-04-24T07:14:36;8.80;99.90
4279;DHT22;2153;47.744;10.580;2023-04-24T07:17:04;8.80;99.90
4279;DHT22;2153;47.744;10.580;2023-04-24T07:19:32;8.80;99.90
4279;DHT22;2153;47.744;10.580;2023-04-24T07:21:59;8.80;99.90
4279;DHT22;2153;47.744;10.580;2023-04-24T07:24:27;8.70;99.90
4279;DHT22;2153;47.744;10.580;2023-04-24T07:26:54;8.60;99.90
4279;DHT22;2153;47.744;10.580;2023-04-24T07:29:22;8.60;99.90
4279;DHT22;2153;47.744;10.580;2023-04-24T07:31:49;8.60;99.90
4279;DHT22;2153;47.744;10.580;2023-04-24T07:34:15;8.50;99.90
4279;DHT22;2153;47.744;10.580;2023-04-24T07:36:42;8.40;99.90
4279;DHT22;2153;47.744;10.580;2023-04-24T07:39:09;8.60;99.90
4279;DHT22;2153;47.744;10.580;2023-04-24T07:41:37;8.70;99.90
4279;DHT22;2153;47.744;10.580;2023-04-24T07:44:04;8.80;99.90
4279;DHT22;2153;47.744;10.580;2023-04-24T07:46:31;8.90;99.90
4279;DHT22;2153;47.744;10.580;2023-04-24T07:48:58;9.00;99.90
4279;DHT22;2153;47.744;10.580;2023-04-24T07:51:26;9.00;99.90
4279;DHT22;2153;47.744;10.580;2023-04-24T07:53:54;9.20;99.90
4279;DHT22;2153;47.744;10.580;2023-04-24T07:56:21;9.30;99.90
4279;DHT22;2153;47.744;10.580;2023-04-24T07:58:49;9.30;99.90
4279;DHT22;2153;47.744;10.580;2023-04-24T08:01:16;9.30;99.90
4279;DHT22;2153;47.744;10.580;2023-04-24T08:03:42;9.40;99.90
4279;DHT22;2153;47.744;10.580;2023-04-24T08:06:09;9.60;99.90
4279;DHT22;2153;47.744;10.580;2023-04-24T08:08:36;9.60;99.90
4279;DHT22;2153;47.744;10.580;2023-04-24T08:11:03;9.70;99.90
4279;DHT22;2153;47.744;10.580;2023-04-24T08:13:29;9.80;99.90
4279;DHT22;2153;47.744;10.580;2023-04-24T08:15:57;9.90;99.90
4279;DHT22;2153;47.744;10.580;2023-04-24T08:18:24;10.10;99.90
4279;DHT22;2153;47.744;10.580;2023-04-24T08:20:51;10.10;99.90
4279;DHT22;2153;47.744;10.580;2023-04-24T08:23:18;10.10;99.90
4279;DHT22;2153;47.744;10.580;2023-04-24T08:25:45;10.30;99.90
4279;DHT22;2153;47.744;10.580;2023-04-24T08:28:11;10.40;99.90
4279;DHT22;2153;47.744;10.580;2023-04-24T08:30:45;10.40;99.90
4279;DHT22;2153;47.744;10.580;2023-04-24T08:33:13;10.50;99.90
4279;DHT22;2153;47.744;10.580;2023-04-24T08:35:40;10.50;99.90
4279;DHT22;2153;47.744;10.580;2023-04-24T08:38:07;10.50;99.90
4279;DHT22;2153;47.744;10.580;2023-04-24T08:40:34;10.70;99.90
4279;DHT22;2153;47.744;10.580;2023-04-24T08:43:01;10.80;99.90
4279;DHT22;2153;47.744;10.580;2023-04-24T08:45:28;10.60;99.90
4279;DHT22;2153;47.744;10.580;2023-04-24T08:47:55;10.50;99.90
4279;DHT22;2153;47.744;10.580;2023-04-24T08:50:27;10.20;99.90
4279;DHT22;2153;47.744;10.580;2023-04-24T08:52:55;10.10;99.90
4279;DHT22;2153;47.744;10.580;2023-04-24T08:55:24;10.30;99.90
4279;DHT22;2153;47.744;10.580;2023-04-24T08:57:52;10.50;99.90
4279;DHT22;2153;47.744;10.580;2023-04-24T09:00:20;10.50;99.90
4279;DHT22;2153;47.744;10.580;2023-04-24T09:02:49;10.60;99.90
4279;DHT22;2153;47.744;10.580;2023-04-24T09:05:16;10.60;99.90
4279;DHT22;2153;47.744;10.580;2023-04-24T09:07:49;10.70;99.90
4279;DHT22;2153;47.744;10.580;2023-04-24T09:10:18;10.80;99.90
4279;DHT22;2153;47.744;10.580;2023-04-24T09:12:46;10.70;99.90
4279;DHT22;2153;47.744;10.580;2023-04-24T09:15:13;10.70;99.90
4279;DHT22;2153;47.744;10.580;2023-04-24T09:17:40;10.80;99.90
4279;DHT22;2153;47.744;10.580;2023-04-24T09:20:08;10.80;99.90
4279;DHT22;2153;47.744;10.580;2023-04-24T09:22:34;11.00;99.90
4279;DHT22;2153;47.744;10.580;2023-04-24T09:25:07;11.30;99.90
4279;DHT22;2153;47.744;10.580;2023-04-24T09:27:34;11.60;99.90
4279;DHT22;2153;47.744;10.580;2023-04-24T09:30:01;11.80;99.90
4279;DHT22;2153;47.744;10.580;2023-04-24T09:32:28;11.90;99.90
4279;DHT22;2153;47.744;10.580;2023-04-24T09:35:08;12.10;99.90
4279;DHT22;2153;47.744;10.580;2023-04-24T09:37:36;12.30;99.90
4279;DHT22;2153;47.744;10.580;2023-04-24T09:40:15;12.70;99.90
4279;DHT22;2153;47.744;10.580;2023-04-24T09:42:46;13.20;99.90
4279;DHT22;2153;47.744;10.580;2023-04-24T09:45:18;13.40;99.90
4279;DHT22;2153;47.744;10.580;2023-04-24T09:47:45;13.80;99.90
4279;DHT22;2153;47.744;10.580;2023-04-24T09:50:14;13.80;99.90
4279;DHT22;2153;47.744;10.580;2023-04-24T09:52:42;13.50;99.90
4279;DHT22;2153;47.744;10.580;2023-04-24T09:55:17;13.10;99.90
4279;DHT22;2153;47.744;10.580;2023-04-24T09:57:48;13.00;99.90
4279;DHT22;2153;47.744;10.580;2023-04-24T10:00:18;13.30;99.90
4279;DHT22;2153;47.744;10.580;2023-04-24T10:02:49;13.00;99.90
4279;DHT22;2153;47.744;10.580;2023-04-24T10:05:17;12.40;99.90
4279;DHT22;2153;47.744;10.580;2023-04-24T10:07:44;11.80;99.90
4279;DHT22;2153;47.744;10.580;2023-04-24T10:10:11;10.80;99.90
4279;DHT22;2153;47.744;10.580;2023-04-24T10:12:40;10.20;99.90
4279;DHT22;2153;47.744;10.580;2023-04-24T10:15:10;10.90;99.90
4279;DHT22;2153;47.744;10.580;2023-04-24T10:17:37;11.90;99.90
4279;DHT22;2153;47.744;10.580;2023-04-24T10:20:06;12.90;99.90
4279;DHT22;2153;47.744;10.580;2023-04-24T10:22:33;13.50;99.90
4279;DHT22;2153;47.744;10.580;2023-04-24T10:25:03;13.30;99.90
4279;DHT22;2153;47.744;10.580;2023-04-24T10:27:31;12.70;99.90
4279;DHT22;2153;47.744;10.580;2023-04-24T10:30:02;12.20;99.90
4279;DHT22;2153;47.744;10.580;2023-04-24T10:32:29;11.90;99.90
4279;DHT22;2153;47.744;10.580;2023-04-24T10:34:56;12.10;99.90
4279;DHT22;2153;47.744;10.580;2023-04-24T10:37:23;12.20;99.90
4279;DHT22;2153;47.744;10.580;2023-04-24T10:39:51;12.40;99.90
4279;DHT22;2153;47.744;10.580;2023-04-24T10:42:20;12.50;99.90
4279;DHT22;2153;47.744;10.580;2023-04-24T10:44:47;12.00;99.90
4279;DHT22;2153;47.744;10.580;2023-04-24T10:47:15;11.50;99.90
4279;DHT22;2153;47.744;10.580;2023-04-24T10:49:42;11.00;99.90
4279;DHT22;2153;47.744;10.580;2023-04-24T10:52:09;11.10;99.90
4279;DHT22;2153;47.744;10.580;2023-04-24T10:54:42;11.10;99.90
4279;DHT22;2153;47.744;10.580;2023-04-24T10:57:27;10.80;99.90
4279;DHT22;2153;47.744;10.580;2023-04-24T11:00:13;10.80;99.90
4279;DHT22;2153;47.744;10.580;2023-04-24T11:02:42;10.90;99.90
4279;DHT22;2153;47.744;10.580;2023-04-24T11:05:15;10.70;99.90
4279;DHT22;2153;47.744;10.580;2023-04-24T11:08:10;10.60;99.90
4279;DHT22;2153;47.744;10.580;2023-04-24T11:10:39;10.50;99.90
4279;DHT22;2153;47.744;10.580;2023-04-24T11:13:06;10.60;99.90
4279;DHT22;2153;47.744;10.580;2023-04-24T11:15:32;10.70;99.90
4279;DHT22;2153;47.744;10.580;2023-04-24T11:18:01;11.20;99.90
4279;DHT22;2153;47.744;10.580;2023-04-24T11:20:27;11.50;99.90
4279;DHT22;2153;47.744;10.580;2023-04-24T11:22:55;11.70;99.90
4279;DHT22;2153;47.744;10.580;2023-04-24T11:25:23;11.80;99.90
4279;DHT22;2153;47.744;10.580;2023-04-24T11:27:51;12.00;99.90
4279;DHT22;2153;47.744;10.580;2023-04-24T11:30:29;12.30;99.90
4279;DHT22;2153;47.744;10.580;2023-04-24T11:33:03;12.90;99.90
4279;DHT22;2153;47.744;10.580;2023-04-24T11:35:35;13.40;99.90
4279;DHT22;2153;47.744;10.580;2023-04-24T11:38:03;13.50;99.90
4279;DHT22;2153;47.744;10.580;2023-04-24T11:40:31;13.50;99.90
4279;DHT22;2153;47.744;10.580;2023-04-24T11:43:00;13.80;99.90
4279;DHT22;2153;47.744;10.580;2023-04-24T11:45:28;14.20;99.90
4279;DHT22;2153;47.744;10.580;2023-04-24T11:47:55;14.20;99.90
4279;DHT22;2153;47.744;10.580;2023-04-24T11:50:24;14.00;99.90
4279;DHT22;2153;47.744;10.580;2023-04-24T11:52:53;14.10;99.90
4279;DHT22;2153;47.744;10.580;2023-04-24T11:55:25;14.40;99.90
4279;DHT22;2153;47.744;10.580;2023-04-24T11:57:54;14.50;99.90
4279;DHT22;2153;47.744;10.580;2023-04-24T12:00:24;14.80;99.90
4279;DHT22;2153;47.744;10.580;2023-04-24T12:02:59;14.30;99.90
4279;DHT22;2153;47.744;10.580;2023-04-24T12:05:31;13.50;99.90
4279;DHT22;2153;47.744;10.580;2023-04-24T12:07:59;12.90;99.90
4279;DHT22;2153;47.744;10.580;2023-04-24T12:10:27;12.50;99.90
4279;DHT22;2153;47.744;10.580;2023-04-24T12:12:55;12.40;99.90
4279;DHT22;2153;47.744;10.580;2023-04-24T12:15:23;12.50;99.90
4279;DHT22;2153;47.744;10.580;2023-04-24T12:17:51;13.00;99.90
4279;DHT22;2153;47.744;10.580;2023-04-24T12:20:24;13.50;99.90
4279;DHT22;2153;47.744;10.580;2023-04-24T12:22:53;14.00;99.90
4279;DHT22;2153;47.744;10.580;2023-04-24T12:25:22;14.10;99.90
4279;DHT22;2153;47.744;10.580;2023-04-24T12:27:53;14.30;99.90
4279;DHT22;2153;47.744;10.580;2023-04-24T12:30:20;14.20;99.90
4279;DHT22;2153;47.744;10.580;2023-04-24T12:32:48;14.10;99.90
4279;DHT22;2153;47.744;10.580;2023-04-24T12:35:19;14.30;99.90
4279;DHT22;2153;47.744;10.580;2023-04-24T12:37:47;13.70;99.90
4279;DHT22;2153;47.744;10.580;2023-04-24T12:40:16;13.20;99.90
4279;DHT22;2153;47.744;10.580;2023-04-24T12:42:45;13.00;99.90
4279;DHT22;2153;47.744;10.580;2023-04-24T12:45:13;12.70;99.90
4279;DHT22;2153;47.744;10.580;2023-04-24T12:47:41;12.30;99.90
4279;DHT22;2153;47.744;10.580;2023-04-24T12:50:09;12.10;99.90
4279;DHT22;2153;47.744;10.580;2023-04-24T12:52:37;12.20;99.90
4279;DHT22;2153;47.744;10.580;2023-04-24T12:55:05;12.10;99.90
4279;DHT22;2153;47.744;10.580;2023-04-24T12:57:36;12.10;99.90
4279;DHT22;2153;47.744;10.580;2023-04-24T13:00:04;11.80;99.90
4279;DHT22;2153;47.744;10.580;2023-04-24T13:02:33;12.20;99.90
4279;DHT22;2153;47.744;10.580;2023-04-24T13:05:00;13.00;99.90
4279;DHT22;2153;47.744;10.580;2023-04-24T13:07:28;13.60;99.90
4279;DHT22;2153;47.744;10.580;2023-04-24T13:09:55;14.10;99.90
4279;DHT22;2153;47.744;10.580;2023-04-24T13:12:22;14.20;99.90
4279;DHT22;2153;47.744;10.580;2023-04-24T13:14:52;13.90;99.90
4279;DHT22;2153;47.744;10.580;2023-04-24T13:17:19;13.80;99.90
4279;DHT22;2153;47.744;10.580;2023-04-24T13:19:45;13.50;99.90
4279;DHT22;2153;47.744;10.580;2023-04-24T13:22:13;13.50;99.90
4279;DHT22;2153;47.744;10.580;2023-04-24T13:24:39;13.60;99.90
4279;DHT22;2153;47.744;10.580;2023-04-24T13:27:07;13.90;99.90
4279;DHT22;2153;47.744;10.580;2023-04-24T13:29:34;13.80;99.90
4279;DHT22;2153;47.744;10.580;2023-04-24T13:32:02;14.10;99.90
4279;DHT22;2153;47.744;10.580;2023-04-24T13:34:29;13.90;99.90
4279;DHT22;2153;47.744;10.580;2023-04-24T13:36:57;14.50;99.90
4279;DHT22;2153;47.744;10.580;2023-04-24T13:39:25;14.70;99.90
4279;DHT22;2153;47.744;10.580;2023-04-24T13:41:52;14.30;92.60
4279;DHT22;2153;47.744;10.580;2023-04-24T13:44:20;13.70;97.60
4279;DHT22;2153;47.744;10.580;2023-04-24T13:46:49;14.10;99.90
4279;DHT22;2153;47.744;10.580;2023-04-24T13:49:18;14.10;96.00
4279;DHT22;2153;47.744;10.580;2023-04-24T13:51:45;14.10;95.10
4279;DHT22;2153;47.744;10.580;2023-04-24T13:54:12;14.10;98.90
4279;DHT22;2153;47.744;10.580;2023-04-24T13:56:39;14.20;99.90
4279;DHT22;2153;47.744;10.580;2023-04-24T13:59:06;14.20;99.90
4279;DHT22;2153;47.744;10.580;2023-04-24T14:01:33;13.90;99.90
4279;DHT22;2153;47.744;10.580;2023-04-24T14:03:59;13.50;99.90
4279;DHT22;2153;47.744;10.580;2023-04-24T14:06:28;13.60;99.90
4279;DHT22;2153;47.744;10.580;2023-04-24T14:08:54;13.90;99.90
4279;DHT22;2153;47.744;10.580;2023-04-24T14:11:21;14.20;99.70
4279;DHT22;2153;47.744;10.580;2023-04-24T14:13:48;14.20;99.90
4279;DHT22;2153;47.744;10.580;2023-04-24T14:16:15;14.40;98.30
4279;DHT22;2153;47.744;10.580;2023-04-24T14:18:42;14.10;87.20
4279;DHT22;2153;47.744;10.580;2023-04-24T14:21:09;14.00;69.60
4279;DHT22;2153;47.744;10.580;2023-04-24T14:23:37;13.70;90.50
4279;DHT22;2153;47.744;10.580;2023-04-24T14:26:03;13.30;95.30
4279;DHT22;2153;47.744;10.580;2023-04-24T14:28:30;13.60;94.80
4279;DHT22;2153;47.744;10.580;2023-04-24T14:30:57;13.90;93.80
4279;DHT22;2153;47.744;10.580;2023-04-24T14:33:24;13.80;94.00
4279;DHT22;2153;47.744;10.580;2023-04-24T14:35:51;13.60;95.00
4279;DHT22;2153;47.744;10.580;2023-04-24T14:38:18;13.70;99.90
4279;DHT22;2153;47.744;10.580;2023-04-24T14:40:46;13.40;99.90
4279;DHT22;2153;47.744;10.580;2023-04-24T14:43:12;13.10;99.90
4279;DHT22;2153;47.744;10.580;2023-04-24T14:45:39;12.70;97.60
4279;DHT22;2153;47.744;10.580;2023-04-24T14:48:07;12.50;99.90
4279;DHT22;2153;47.744;10.580;2023-04-24T14:50:34;12.30;99.90
4279;DHT22;2153;47.744;10.580;2023-04-24T14:53:01;12.10;99.90
4279;DHT22;2153;47.744;10.580;2023-04-24T14:55:28;11.90;99.90
4279;DHT22;2153;47.744;10.580;2023-04-24T14:57:56;11.80;99.90
4279;DHT22;2153;47.744;10.580;2023-04-24T15:00:23;12.00;99.90
4279;DHT22;2153;47.744;10.580;2023-04-24T15:02:49;12.20;99.90
4279;DHT22;2153;47.744;10.580;2023-04-24T15:05:16;12.30;99.90
4279;DHT22;2153;47.744;10.580;2023-04-24T15:07:43;12.10;99.90
4279;DHT22;2153;47.744;10.580;2023-04-24T15:10:11;12.30;99.90
4279;DHT22;2153;47.744;10.580;2023-04-24T15:12:37;12.90;99.90
4279;DHT22;2153;47.744;10.580;2023-04-24T15:15:07;13.20;97.10
4279;DHT22;2153;47.744;10.580;2023-04-24T15:17:34;13.40;93.00
4279;DHT22;2153;47.744;10.580;2023-04-24T15:20:01;13.20;93.00
4279;DHT22;2153;47.744;10.580;2023-04-24T15:22:29;12.80;92.50
4279;DHT22;2153;47.744;10.580;2023-04-24T15:24:55;12.40;96.30
4279;DHT22;2153;47.744;10.580;2023-04-24T15:27:22;12.20;99.60
4279;DHT22;2153;47.744;10.580;2023-04-24T15:29:50;12.00;99.20
4279;DHT22;2153;47.744;10.580;2023-04-24T15:32:20;11.90;99.90
4279;DHT22;2153;47.744;10.580;2023-04-24T15:34:47;11.80;99.90
4279;DHT22;2153;47.744;10.580;2023-04-24T15:37:13;11.90;99.90
4279;DHT22;2153;47.744;10.580;2023-04-24T15:39:41;12.00;99.90
4279;DHT22;2153;47.744;10.580;2023-04-24T15:42:10;12.00;99.90
4279;DHT22;2153;47.744;10.580;2023-04-24T15:44:37;12.10;99.90
4279;DHT22;2153;47.744;10.580;2023-04-24T15:47:04;12.30;99.90
4279;DHT22;2153;47.744;10.580;2023-04-24T15:49:32;12.40;99.90
4279;DHT22;2153;47.744;10.580;2023-04-24T15:51:59;12.40;99.90
4279;DHT22;2153;47.744;10.580;2023-04-24T15:54:26;12.10;99.90
4279;DHT22;2153;47.744;10.580;2023-04-24T15:56:52;11.80;99.90